sensor_id;sensor_type;location;lat;lon;timestamp;pressure;altitude;pressure_sealevel;temperature;humidity
52983;BME280;48698;45.736;13.926;2023-01-29T00:03:43;97883.03;;;-1.12;100.00
52983;BME280;48698;45.736;13.926;2023-01-29T00:08:46;98148.84;;;0.38;100.00
52983;BME280;48698;45.736;13.926;2023-01-29T00:13:53;98185.38;;;0.50;100.00
52983;BME280;48698;45.736;13.926;2023-01-29T00:18:55;98199.41;;;0.30;100.00
52983;BME280;48698;45.736;13.926;2023-01-29T00:23:58;98221.06;;;0.68;100.00
52983;BME280;48698;45.736;13.926;2023-01-29T00:29:01;98168.88;;;0.33;100.00
52983;BME280;48698;45.736;13.926;2023-01-29T00:34:04;98136.75;;;0.13;100.00
52983;BME280;48698;45.736;13.926;2023-01-29T00:39:15;98131.50;;;0.10;100.00
52983;BME280;48698;45.736;13.926;2023-01-29T00:44:28;98150.66;;;0.11;100.00
52983;BME280;48698;45.736;13.926;2023-01-29T00:49:49;98206.31;;;0.49;100.00
52983;BME280;48698;45.736;13.926;2023-01-29T00:54:53;98195.00;;;0.42;100.00
52983;BME280;48698;45.736;13.926;2023-01-29T00:59:56;98233.31;;;0.49;100.00
52983;BME280;48698;45.736;13.926;2023-01-29T01:05:11;98241.16;;;0.49;100.00
52983;BME280;48698;45.736;13.926;2023-01-29T01:10:22;98249.03;;;0.18;100.00
52983;BME280;48698;45.736;13.926;2023-01-29T01:15:37;98160.28;;;-0.25;100.00
52983;BME280;48698;45.736;13.926;2023-01-29T01:20:40;98150.72;;;-0.30;100.00
52983;BME280;48698;45.736;13.926;2023-01-29T01:25:43;98195.94;;;0.10;100.00
52983;BME280;48698;45.736;13.926;2023-01-29T01:30:56;98143.69;;;0.08;100.00
52983;BME280;48698;45.736;13.926;2023-01-29T01:36:09;98238.50;;;0.63;100.00
52983;BME280;48698;45.736;13.926;2023-01-29T01:41:14;98152.41;;;0.07;100.00
52983;BME280;48698;45.736;13.926;2023-01-29T01:46:29;98213.31;;;0.42;100.00
52983;BME280;48698;45.736;13.926;2023-01-29T01:51:35;98014.19;;;-0.57;100.00
52983;BME280;48698;45.736;13.926;2023-01-29T01:56:44;97936.03;;;-1.10;100.00
52983;BME280;48698;45.736;13.926;2023-01-29T02:01:52;98232.34;;;0.73;100.00
52983;BME280;48698;45.736;13.926;2023-01-29T02:06:55;98236.69;;;0.80;100.00
52983;BME280;48698;45.736;13.926;2023-01-29T02:12:19;97990.72;;;-0.72;100.00
52983;BME280;48698;45.736;13.926;2023-01-29T02:17:22;98183.63;;;0.54;100.00
52983;BME280;48698;45.736;13.926;2023-01-29T02:32:58;98245.41;;;0.85;100.00
52983;BME280;48698;45.736;13.926;2023-01-29T02:43:38;98270.72;;;0.79;100.00
52983;BME280;48698;45.736;13.926;2023-01-29T02:49:07;98268.13;;;0.61;100.00
52983;BME280;48698;45.736;13.926;2023-01-29T02:54:23;98107.22;;;-0.31;100.00
52983;BME280;48698;45.736;13.926;2023-01-29T02:59:34;98165.50;;;-0.04;100.00
52983;BME280;48698;45.736;13.926;2023-01-29T03:04:44;98167.22;;;0.08;100.00
52983;BME280;48698;45.736;13.926;2023-01-29T03:09:50;97998.59;;;-1.07;100.00
52983;BME280;48698;45.736;13.926;2023-01-29T03:14:56;98290.81;;;0.45;100.00
52983;BME280;48698;45.736;13.926;2023-01-29T03:20:16;98278.63;;;0.38;100.00
52983;BME280;48698;45.736;13.926;2023-01-29T03:25:21;98278.59;;;0.47;100.00
52983;BME280;48698;45.736;13.926;2023-01-29T03:30:47;98279.50;;;0.46;100.00
52983;BME280;48698;45.736;13.926;2023-01-29T03:36:40;98237.72;;;0.04;100.00
52983;BME280;48698;45.736;13.926;2023-01-29T03:52:37;98266.41;;;0.37;100.00
52983;BME280;48698;45.736;13.926;2023-01-29T03:57:59;98236.84;;;0.11;100.00
52983;BME280;48698;45.736;13.926;2023-01-29T04:08:29;98289.06;;;0.35;100.00
52983;BME280;48698;45.736;13.926;2023-01-29T04:13:35;98266.44;;;0.22;100.00
52983;BME280;48698;45.736;13.926;2023-01-29T04:18:38;98236.84;;;-0.03;100.00
52983;BME280;48698;45.736;13.926;2023-01-29T04:23:41;98104.63;;;-0.80;100.00
52983;BME280;48698;45.736;13.926;2023-01-29T04:28:53;98277.75;;;0.21;100.00
52983;BME280;48698;45.736;13.926;2023-01-29T04:34:21;98175.09;;;-0.37;100.00
52983;BME280;48698;45.736;13.926;2023-01-29T04:39:39;98175.06;;;-0.62;100.00
52983;BME280;48698;45.736;13.926;2023-01-29T04:45:15;98273.41;;;0.18;100.00
52983;BME280;48698;45.736;13.926;2023-01-29T04:51:23;98291.69;;;0.27;100.00
52983;BME280;48698;45.736;13.926;2023-01-29T05:01:12;98283.84;;;0.17;100.00
52983;BME280;48698;45.736;13.926;2023-01-29T05:06:17;97948.16;;;-1.65;100.00
52983;BME280;48698;45.736;13.926;2023-01-29T05:11:23;98246.41;;;0.10;100.00
52983;BME280;48698;45.736;13.926;2023-01-29T05:16:28;97960.31;;;-1.59;100.00
52983;BME280;48698;45.736;13.926;2023-01-29T05:21:45;98232.50;;;-0.18;100.00
52983;BME280;48698;45.736;13.926;2023-01-29T05:26:52;98288.22;;;0.16;100.00
52983;BME280;48698;45.736;13.926;2023-01-29T05:32:14;98292.56;;;0.14;100.00
52983;BME280;48698;45.736;13.926;2023-01-29T05:37:17;98283.00;;;0.19;100.00
52983;BME280;48698;45.736;13.926;2023-01-29T05:42:20;98122.88;;;-0.75;100.00
52983;BME280;48698;45.736;13.926;2023-01-29T05:47:23;98218.59;;;-0.33;100.00
52983;BME280;48698;45.736;13.926;2023-01-29T05:52:25;98246.41;;;-0.28;100.00
52983;BME280;48698;45.736;13.926;2023-01-29T05:57:39;98301.25;;;0.21;100.00
52983;BME280;48698;45.736;13.926;2023-01-29T06:02:52;98243.81;;;-0.16;100.00
52983;BME280;48698;45.736;13.926;2023-01-29T06:07:58;98304.75;;;0.08;100.00
52983;BME280;48698;45.736;13.926;2023-01-29T06:13:01;98130.69;;;-0.87;100.00
52983;BME280;48698;45.736;13.926;2023-01-29T06:18:04;98218.53;;;-0.64;100.00
52983;BME280;48698;45.736;13.926;2023-01-29T06:23:07;98261.19;;;-0.22;100.00
52983;BME280;48698;45.736;13.926;2023-01-29T06:28:10;98274.28;;;-0.18;100.00
52983;BME280;48698;45.736;13.926;2023-01-29T06:33:12;98194.16;;;-0.63;100.00
52983;BME280;48698;45.736;13.926;2023-01-29T06:38:15;98100.16;;;-1.32;100.00
52983;BME280;48698;45.736;13.926;2023-01-29T06:43:19;98083.69;;;-1.27;100.00
52983;BME280;48698;45.736;13.926;2023-01-29T06:48:23;98328.25;;;0.30;100.00
52983;BME280;48698;45.736;13.926;2023-01-29T06:53:26;98147.22;;;-0.87;100.00
52983;BME280;48698;45.736;13.926;2023-01-29T06:58:29;98323.03;;;0.18;100.00
52983;BME280;48698;45.736;13.926;2023-01-29T07:03:32;98333.47;;;0.33;100.00
52983;BME280;48698;45.736;13.926;2023-01-29T07:08:36;98334.34;;;0.28;100.00
52983;BME280;48698;45.736;13.926;2023-01-29T07:13:39;98188.09;;;-0.49;100.00
52983;BME280;48698;45.736;13.926;2023-01-29T07:18:42;98190.66;;;-0.81;100.00
52983;BME280;48698;45.736;13.926;2023-01-29T07:23:45;98326.50;;;0.17;100.00
52983;BME280;48698;45.736;13.926;2023-01-29T07:28:47;98279.50;;;-0.10;100.00
52983;BME280;48698;45.736;13.926;2023-01-29T07:33:50;98372.69;;;0.38;100.00
52983;BME280;48698;45.736;13.926;2023-01-29T07:38:53;98251.63;;;-0.26;100.00
52983;BME280;48698;45.736;13.926;2023-01-29T07:43:56;98175.03;;;-0.80;100.00
52983;BME280;48698;45.736;13.926;2023-01-29T07:48:58;98181.16;;;-0.49;100.00
52983;BME280;48698;45.736;13.926;2023-01-29T07:54:01;98356.13;;;0.43;100.00
52983;BME280;48698;45.736;13.926;2023-01-29T07:59:11;98318.69;;;0.25;100.00
52983;BME280;48698;45.736;13.926;2023-01-29T08:04:14;98082.84;;;-1.12;100.00
52983;BME280;48698;45.736;13.926;2023-01-29T08:09:17;98094.16;;;-1.10;100.00
52983;BME280;48698;45.736;13.926;2023-01-29T08:14:29;98393.59;;;0.77;100.00
52983;BME280;48698;45.736;13.926;2023-01-29T08:19:42;98381.38;;;0.88;100.00
52983;BME280;48698;45.736;13.926;2023-01-29T08:24:45;98210.75;;;-0.02;100.00
52983;BME280;48698;45.736;13.926;2023-01-29T08:30:00;98223.78;;;0.15;100.00
52983;BME280;48698;45.736;13.926;2023-01-29T08:35:03;98238.59;;;0.03;100.00
52983;BME280;48698;45.736;13.926;2023-01-29T08:40:07;98291.66;;;0.58;100.00
52983;BME280;48698;45.736;13.926;2023-01-29T08:45:19;98288.16;;;0.75;100.00
52983;BME280;48698;45.736;13.926;2023-01-29T08:50:32;98325.53;;;1.12;100.00
52983;BME280;48698;45.736;13.926;2023-01-29T08:55:37;98362.06;;;1.44;100.00
52983;BME280;48698;45.736;13.926;2023-01-29T09:00:40;98321.16;;;1.14;100.00
52983;BME280;48698;45.736;13.926;2023-01-29T09:05:43;98196.81;;;0.09;100.00
52983;BME280;48698;45.736;13.926;2023-01-29T09:10:48;98357.72;;;1.38;100.00
52983;BME280;48698;45.736;13.926;2023-01-29T09:15:50;98179.34;;;0.32;100.00
52983;BME280;48698;45.736;13.926;2023-01-29T09:21:03;98164.56;;;0.29;100.00
52983;BME280;48698;45.736;13.926;2023-01-29T09:26:08;98352.44;;;1.49;100.00
52983;BME280;48698;45.736;13.926;2023-01-29T09:31:11;98301.13;;;1.12;100.00
52983;BME280;48698;45.736;13.926;2023-01-29T09:36:13;98082.84;;;-0.14;100.00
52983;BME280;48698;45.736;13.926;2023-01-29T09:41:32;98107.16;;;0.02;100.00
52983;BME280;48698;45.736;13.926;2023-01-29T09:46:45;98307.09;;;1.44;100.00
52983;BME280;48698;45.736;13.926;2023-01-29T09:51:55;98381.72;;;2.19;100.00
52983;BME280;48698;45.736;13.926;2023-01-29T09:57:00;98265.78;;;1.90;100.00
52983;BME280;48698;45.736;13.926;2023-01-29T10:02:05;98374.22;;;2.88;100.00
52983;BME280;48698;45.736;13.926;2023-01-29T10:18:30;98363.13;;;4.11;100.00
52983;BME280;48698;45.736;13.926;2023-01-29T10:23:42;98336.41;;;4.40;100.00
52983;BME280;48698;45.736;13.926;2023-01-29T10:29:00;98280.91;;;4.01;100.00
52983;BME280;48698;45.736;13.926;2023-01-29T10:34:20;98283.66;;;3.94;100.00
52983;BME280;48698;45.736;13.926;2023-01-29T10:39:36;98367.31;;;4.26;100.00
52983;BME280;48698;45.736;13.926;2023-01-29T10:45:08;98335.53;;;4.39;100.00
52983;BME280;48698;45.736;13.926;2023-01-29T10:55:45;98260.03;;;3.92;100.00
52983;BME280;48698;45.736;13.926;2023-01-29T11:00:54;98267.91;;;4.47;100.00
52983;BME280;48698;45.736;13.926;2023-01-29T11:06:20;98326.31;;;5.16;100.00
52983;BME280;48698;45.736;13.926;2023-01-29T11:16:54;98248.13;;;4.74;100.00
52983;BME280;48698;45.736;13.926;2023-01-29T11:22:00;98278.16;;;4.61;100.00
52983;BME280;48698;45.736;13.926;2023-01-29T11:27:12;98305.34;;;4.61;100.00
52983;BME280;48698;45.736;13.926;2023-01-29T11:37:40;98238.50;;;4.73;100.00
52983;BME280;48698;45.736;13.926;2023-01-29T11:42:46;98288.56;;;5.16;100.00
52983;BME280;48698;45.736;13.926;2023-01-29T11:47:53;98077.81;;;3.44;100.00
52983;BME280;48698;45.736;13.926;2023-01-29T11:53:02;98125.28;;;3.29;100.00
52983;BME280;48698;45.736;13.926;2023-01-29T11:58:14;98041.59;;;3.11;100.00
52983;BME280;48698;45.736;13.926;2023-01-29T12:03:23;98277.31;;;4.60;100.00
52983;BME280;48698;45.736;13.926;2023-01-29T12:08:37;98096.81;;;3.58;100.00
52983;BME280;48698;45.736;13.926;2023-01-29T12:13:56;98242.91;;;4.24;100.00
52983;BME280;48698;45.736;13.926;2023-01-29T12:19:24;98205.38;;;4.14;100.00
52983;BME280;48698;45.736;13.926;2023-01-29T12:24:40;98220.00;;;4.30;100.00
52983;BME280;48698;45.736;13.926;2023-01-29T12:35:46;98235.66;;;4.36;100.00
52983;BME280;48698;45.736;13.926;2023-01-29T12:40:54;98241.50;;;4.53;100.00
52983;BME280;48698;45.736;13.926;2023-01-29T12:46:00;97934.59;;;2.73;100.00
52983;BME280;48698;45.736;13.926;2023-01-29T12:51:06;98233.38;;;4.15;100.00
52983;BME280;48698;45.736;13.926;2023-01-29T12:56:15;98151.59;;;3.81;100.00
52983;BME280;48698;45.736;13.926;2023-01-29T13:01:34;98222.84;;;4.16;100.00
52983;BME280;48698;45.736;13.926;2023-01-29T13:06:41;98162.56;;;4.06;100.00
52983;BME280;48698;45.736;13.926;2023-01-29T13:11:54;98150.47;;;3.97;100.00
52983;BME280;48698;45.736;13.926;2023-01-29T13:17:08;97959.03;;;2.75;100.00
52983;BME280;48698;45.736;13.926;2023-01-29T13:27:26;98191.34;;;4.13;100.00
52983;BME280;48698;45.736;13.926;2023-01-29T13:32:34;98110.81;;;3.59;100.00
52983;BME280;48698;45.736;13.926;2023-01-29T13:37:40;98230.19;;;4.48;100.00
52983;BME280;48698;45.736;13.926;2023-01-29T13:42:46;97925.13;;;2.65;100.00
52983;BME280;48698;45.736;13.926;2023-01-29T13:47:51;97984.84;;;3.02;100.00
52983;BME280;48698;45.736;13.926;2023-01-29T13:52:58;97890.13;;;2.66;100.00
52983;BME280;48698;45.736;13.926;2023-01-29T13:58:16;98117.13;;;4.01;100.00
52983;BME280;48698;45.736;13.926;2023-01-29T14:08:43;98190.59;;;4.07;100.00
52983;BME280;48698;45.736;13.926;2023-01-29T14:13:48;97860.19;;;1.63;100.00
52983;BME280;48698;45.736;13.926;2023-01-29T14:18:59;97863.63;;;1.68;100.00
52983;BME280;48698;45.736;13.926;2023-01-29T14:24:19;98193.78;;;3.72;100.00
52983;BME280;48698;45.736;13.926;2023-01-29T14:29:27;98140.06;;;3.36;100.00
52983;BME280;48698;45.736;13.926;2023-01-29T14:34:49;98192.56;;;3.35;100.00
52983;BME280;48698;45.736;13.926;2023-01-29T14:39:56;98146.50;;;3.12;100.00
52983;BME280;48698;45.736;13.926;2023-01-29T14:55:40;98178.50;;;3.40;100.00
52983;BME280;48698;45.736;13.926;2023-01-29T15:00:50;98158.63;;;3.24;100.00
52983;BME280;48698;45.736;13.926;2023-01-29T15:05:55;98178.75;;;3.24;100.00
52983;BME280;48698;45.736;13.926;2023-01-29T15:11:06;97878.78;;;1.40;100.00
52983;BME280;48698;45.736;13.926;2023-01-29T15:16:44;98078.31;;;2.48;100.00
52983;BME280;48698;45.736;13.926;2023-01-29T15:22:02;98043.66;;;2.25;100.00
52983;BME280;48698;45.736;13.926;2023-01-29T15:27:11;98133.16;;;2.65;100.00
52983;BME280;48698;45.736;13.926;2023-01-29T15:32:27;98106.16;;;2.55;100.00
52983;BME280;48698;45.736;13.926;2023-01-29T15:37:35;97926.00;;;1.26;100.00
52983;BME280;48698;45.736;13.926;2023-01-29T15:42:45;98142.19;;;2.41;100.00
52983;BME280;48698;45.736;13.926;2023-01-29T15:47:52;98107.75;;;1.89;100.00
52983;BME280;48698;45.736;13.926;2023-01-29T15:52:59;97896.25;;;0.40;100.00
52983;BME280;48698;45.736;13.926;2023-01-29T15:58:12;98177.69;;;1.80;100.00
52983;BME280;48698;45.736;13.926;2023-01-29T16:03:25;98127.50;;;1.29;100.00
52983;BME280;48698;45.736;13.926;2023-01-29T16:08:31;98051.91;;;0.87;100.00
52983;BME280;48698;45.736;13.926;2023-01-29T16:13:43;98076.22;;;1.01;100.00
52983;BME280;48698;45.736;13.926;2023-01-29T16:18:50;98031.22;;;0.52;100.00
52983;BME280;48698;45.736;13.926;2023-01-29T16:24:13;98021.72;;;0.34;100.00
52983;BME280;48698;45.736;13.926;2023-01-29T16:29:32;98213.72;;;1.47;100.00
52983;BME280;48698;45.736;13.926;2023-01-29T16:34:41;98159.94;;;0.93;100.00
52983;BME280;48698;45.736;13.926;2023-01-29T16:39:47;98198.22;;;1.16;100.00
52983;BME280;48698;45.736;13.926;2023-01-29T16:45:03;98063.56;;;0.24;100.00
52983;BME280;48698;45.736;13.926;2023-01-29T16:55:46;98138.31;;;0.57;100.00
52983;BME280;48698;45.736;13.926;2023-01-29T17:01:02;97883.91;;;-1.03;100.00
52983;BME280;48698;45.736;13.926;2023-01-29T17:06:18;98007.16;;;-0.36;100.00
52983;BME280;48698;45.736;13.926;2023-01-29T17:11:30;98086.22;;;0.14;100.00
52983;BME280;48698;45.736;13.926;2023-01-29T17:16:48;98194.13;;;0.45;100.00
52983;BME280;48698;45.736;13.926;2023-01-29T17:21:52;98085.44;;;-0.14;100.00
52983;BME280;48698;45.736;13.926;2023-01-29T17:26:56;98058.47;;;-0.29;100.00
52983;BME280;48698;45.736;13.926;2023-01-29T17:31:59;98199.28;;;0.63;100.00
52983;BME280;48698;45.736;13.926;2023-01-29T17:37:03;98161.03;;;0.38;100.00
52983;BME280;48698;45.736;13.926;2023-01-29T17:42:11;97941.25;;;-1.10;100.00
52983;BME280;48698;45.736;13.926;2023-01-29T17:47:15;98222.84;;;0.51;100.00
52983;BME280;48698;45.736;13.926;2023-01-29T17:52:19;98190.69;;;0.17;100.00
52983;BME280;48698;45.736;13.926;2023-01-29T17:57:22;98182.00;;;-0.03;100.00
52983;BME280;48698;45.736;13.926;2023-01-29T18:02:27;98100.28;;;-0.64;100.00
52983;BME280;48698;45.736;13.926;2023-01-29T18:07:41;98190.72;;;0.08;100.00
52983;BME280;48698;45.736;13.926;2023-01-29T18:12:46;98222.88;;;0.27;100.00
52983;BME280;48698;45.736;13.926;2023-01-29T18:17:50;98181.16;;;0.06;100.00
52983;BME280;48698;45.736;13.926;2023-01-29T18:23:06;98201.09;;;0.38;100.00
52983;BME280;48698;45.736;13.926;2023-01-29T18:28:15;98004.66;;;-0.91;100.00
52983;BME280;48698;45.736;13.926;2023-01-29T18:33:19;98148.09;;;-0.20;100.00
52983;BME280;48698;45.736;13.926;2023-01-29T18:38:23;97890.88;;;-1.74;100.00
52983;BME280;48698;45.736;13.926;2023-01-29T18:43:27;98163.75;;;0.00;100.00
52983;BME280;48698;45.736;13.926;2023-01-29T18:48:31;98075.03;;;-0.53;100.00
52983;BME280;48698;45.736;13.926;2023-01-29T18:53:35;98121.13;;;-0.35;100.00
52983;BME280;48698;45.736;13.926;2023-01-29T18:58:39;98090.72;;;-0.44;100.00
52983;BME280;48698;45.736;13.926;2023-01-29T19:03:53;97920.41;;;-1.41;100.00
52983;BME280;48698;45.736;13.926;2023-01-29T19:09:16;98048.97;;;-0.73;100.00
52983;BME280;48698;45.736;13.926;2023-01-29T19:14:30;98195.06;;;-0.02;100.00
52983;BME280;48698;45.736;13.926;2023-01-29T19:19:32;98147.25;;;-0.23;100.00
52983;BME280;48698;45.736;13.926;2023-01-29T19:24:37;98063.75;;;-0.72;100.00
52983;BME280;48698;45.736;13.926;2023-01-29T19:29:40;97889.13;;;-1.78;100.00
52983;BME280;48698;45.736;13.926;2023-01-29T19:34:43;97871.75;;;-1.85;100.00
52983;BME280;48698;45.736;13.926;2023-01-29T19:39:45;97995.97;;;-1.23;100.00
52983;BME280;48698;45.736;13.926;2023-01-29T19:44:48;98044.66;;;-0.93;100.00
52983;BME280;48698;45.736;13.926;2023-01-29T19:49:53;98155.06;;;-0.38;100.00
52983;BME280;48698;45.736;13.926;2023-01-29T19:54:57;97888.22;;;-1.89;100.00
52983;BME280;48698;45.736;13.926;2023-01-29T20:00:00;98202.03;;;-0.19;100.00
52983;BME280;48698;45.736;13.926;2023-01-29T20:05:04;98173.31;;;-0.52;100.00
52983;BME280;48698;45.736;13.926;2023-01-29T20:10:25;98183.78;;;-0.47;100.00
52983;BME280;48698;45.736;13.926;2023-01-29T20:15:29;98070.66;;;-1.24;100.00
52983;BME280;48698;45.736;13.926;2023-01-29T20:20:31;97943.63;;;-2.34;100.00
52983;BME280;48698;45.736;13.926;2023-01-29T20:25:34;98012.25;;;-2.04;100.00
52983;BME280;48698;45.736;13.926;2023-01-29T20:30:40;98218.47;;;-0.85;100.00
52983;BME280;48698;45.736;13.926;2023-01-29T20:35:44;98173.25;;;-0.94;100.00
52983;BME280;48698;45.736;13.926;2023-01-29T20:40:48;98021.88;;;-1.90;100.00
52983;BME280;48698;45.736;13.926;2023-01-29T20:46:01;97901.84;;;-2.72;100.00
52983;BME280;48698;45.736;13.926;2023-01-29T20:51:09;98227.97;;;-1.02;100.00
52983;BME280;48698;45.736;13.926;2023-01-29T20:56:16;98218.44;;;-0.92;100.00
52983;BME280;48698;45.736;13.926;2023-01-29T21:01:23;98054.78;;;-2.01;100.00
52983;BME280;48698;45.736;13.926;2023-01-29T21:06:26;98141.81;;;-1.50;100.00
52983;BME280;48698;45.736;13.926;2023-01-29T21:11:30;98140.88;;;-1.59;100.00
52983;BME280;48698;45.736;13.926;2023-01-29T21:16:35;98157.41;;;-1.53;100.00
52983;BME280;48698;45.736;13.926;2023-01-29T21:21:48;98194.09;;;-0.96;100.00
52983;BME280;48698;45.736;13.926;2023-01-29T21:26:51;97954.06;;;-2.26;100.00
52983;BME280;48698;45.736;13.926;2023-01-29T21:31:54;97870.69;;;-2.61;100.00
52983;BME280;48698;45.736;13.926;2023-01-29T21:36:57;98099.38;;;-1.16;100.00
52983;BME280;48698;45.736;13.926;2023-01-29T21:42:00;98025.41;;;-1.67;100.00
52983;BME280;48698;45.736;13.926;2023-01-29T21:47:21;98142.84;;;-0.94;100.00
52983;BME280;48698;45.736;13.926;2023-01-29T21:52:24;98192.41;;;-0.83;100.00
52983;BME280;48698;45.736;13.926;2023-01-29T21:57:26;98154.03;;;-1.28;100.00
52983;BME280;48698;45.736;13.926;2023-01-29T22:02:29;98114.00;;;-1.53;100.00
52983;BME280;48698;45.736;13.926;2023-01-29T22:07:43;98200.16;;;-1.05;100.00
52983;BME280;48698;45.736;13.926;2023-01-29T22:12:58;98172.22;;;-1.45;100.00
52983;BME280;48698;45.736;13.926;2023-01-29T22:18:01;97975.56;;;-2.62;100.00
52983;BME280;48698;45.736;13.926;2023-01-29T22:23:04;98079.00;;;-2.14;100.00
52983;BME280;48698;45.736;13.926;2023-01-29T22:28:07;98066.00;;;-2.14;100.00
52983;BME280;48698;45.736;13.926;2023-01-29T22:33:13;98199.03;;;-1.67;100.00
52983;BME280;48698;45.736;13.926;2023-01-29T22:38:17;98049.38;;;-2.37;100.00
52983;BME280;48698;45.736;13.926;2023-01-29T22:43:20;97934.38;;;-3.31;100.00
52983;BME280;48698;45.736;13.926;2023-01-29T22:48:23;98061.44;;;-2.53;100.00
52983;BME280;48698;45.736;13.926;2023-01-29T22:53:26;98080.56;;;-2.43;100.00
52983;BME280;48698;45.736;13.926;2023-01-29T22:58:29;97889.38;;;-3.30;100.00
52983;BME280;48698;45.736;13.926;2023-01-29T23:03:41;98116.34;;;-2.08;100.00
52983;BME280;48698;45.736;13.926;2023-01-29T23:08:44;97873.75;;;-3.39;100.00
52983;BME280;48698;45.736;13.926;2023-01-29T23:13:57;97884.22;;;-3.24;100.00
52983;BME280;48698;45.736;13.926;2023-01-29T23:18:59;98002.41;;;-2.66;100.00
52983;BME280;48698;45.736;13.926;2023-01-29T23:24:02;98126.03;;;-1.84;100.00
52983;BME280;48698;45.736;13.926;2023-01-29T23:29:05;98079.88;;;-2.14;100.00
52983;BME280;48698;45.736;13.926;2023-01-29T23:34:08;97951.69;;;-3.30;100.00
52983;BME280;48698;45.736;13.926;2023-01-29T23:39:11;97878.66;;;-3.73;100.00
52983;BME280;48698;45.736;13.926;2023-01-29T23:44:24;98100.84;;;-1.82;100.00
52983;BME280;48698;45.736;13.926;2023-01-29T23:49:27;97992.16;;;-2.40;100.00
52983;BME280;48698;45.736;13.926;2023-01-29T23:54:29;97963.28;;;-2.86;100.00
52983;BME280;48698;45.736;13.926;2023-01-29T23:59:32;98047.53;;;-2.59;100.00
